Cape Peony — 3FDX6 — position and weather

sailwx.info

Track history (hours):
 
Tides and Currents Weather Stations Pressure Air Temp Water Temp Dewpoint Dewpoint Depression Visibility Wind Speed Wind Dir Waves Ship Positions

Cape Peony

Last reported at 2017-Aug-12 03:35 UTC. Time now 2017-Aug-21 02:28 UTC.
Position N 01°18' E 103°20'.
Warning: this ship's position is 8 days out of date.

Length 292 m; draft 18.2 m.

Type: Cargo ship. MMSI: 373590000.

Date/timePositionNaut miles runAvg speedWind from/ knotsBaromVisibWave heightAir tempDewpointWater temp
2017-Aug-12 03:35N 01°18' E 103°20'312.3
2017-Aug-12 03:21N 01°16' E 103°22'513.0
2017-Aug-12 02:59N 01°14' E 103°26'713.5
2017-Aug-12 02:30N 01°13' E 103°32'713.4
2017-Aug-12 02:00N 01°11' E 103°39'611.8
2017-Aug-12 01:30N 01°08' E 103°44'611.1
2017-Aug-12 01:00N 01°11' E 103°49'510.9
2017-Aug-12 00:30N 01°13' E 103°54'4 8.1
2017-Aug-12 00:00N 01°15' E 103°58'3 5.7
2017-Aug-11 23:30N 01°17' E 103°60'0 0.6
2017-Aug-11 22:52N 01°17' E 104°00'0 0.0
2017-Aug-11 22:28N 01°17' E 104°00'0 0.0
2017-Aug-11 21:55N 01°17' E 104°00'0 0.1
2017-Aug-11 21:28N 01°17' E 104°00'0 0.1
2017-Aug-11 20:46N 01°17' E 104°00'0 0.2
2017-Aug-11 20:22N 01°17' E 104°00'0 0.2
2017-Aug-11 19:55N 01°17' E 104°00'0 0.1
2017-Aug-11 19:22N 01°17' E 104°00'0 0.3
2017-Aug-11 18:25N 01°17' E 103°60'0 0.0
2017-Aug-11 17:55N 01°17' E 103°60'0 0.1
2017-Aug-11 17:25N 01°17' E 103°60'0 0.1
2017-Aug-11 16:55N 01°17' E 103°60'0 0.0
2017-Aug-11 16:28N 01°17' E 103°60'0 0.1
2017-Aug-11 15:58N 01°17' E 103°60'0 0.0
2017-Aug-11 15:25N 01°17' E 103°60'0 0.1
2017-Aug-11 14:43N 01°17' E 103°60'0 0.1
2017-Aug-11 13:58N 01°17' E 103°60'0 0.0
2017-Aug-11 13:25N 01°17' E 103°60'0 0.0
2017-Aug-11 12:58N 01°17' E 103°60'0 0.2
2017-Aug-11 11:43N 01°17' E 104°00'0 0.1
2017-Aug-11 11:25N 01°17' E 104°00'0 0.1
2017-Aug-11 10:55N 01°17' E 104°00'0 0.1
2017-Aug-11 10:19N 01°17' E 104°00'0 0.1
2017-Aug-11 09:55N 01°17' E 104°00'0 1.0
2017-Aug-11 09:30N 01°17' E 104°01'1 2.1
2017-Aug-11 09:00N 01°16' E 103°60'1 1.4
2017-Aug-11 08:30N 01°16' E 104°00'3 5.8
2017-Aug-11 08:00N 01°16' E 104°03'  
Track history (hours):
 
Tides and Currents Weather Stations Pressure Air Temp Water Temp Dewpoint Dewpoint Depression Visibility Wind Speed Wind Dir Waves Ship Positions

Cape Peony

Last reported at 2017-Aug-12 03:35 UTC. Time now 2017-Aug-21 02:28 UTC.
Position N 01°18' E 103°20'.
Warning: this ship's position is 8 days out of date.

Length 292 m; draft 18.2 m.

Type: Cargo ship. MMSI: 373590000.

Date/timePositionNaut miles runAvg speedWind from/ knotsBaromVisibWave heightAir tempDewpointWater temp
2017-Aug-12 03:35N 01°18' E 103°20'312.3
2017-Aug-12 03:21N 01°16' E 103°22'513.0
2017-Aug-12 02:59N 01°14' E 103°26'713.5
2017-Aug-12 02:30N 01°13' E 103°32'713.4
2017-Aug-12 02:00N 01°11' E 103°39'611.8
2017-Aug-12 01:30N 01°08' E 103°44'611.1
2017-Aug-12 01:00N 01°11' E 103°49'510.9
2017-Aug-12 00:30N 01°13' E 103°54'4 8.1
2017-Aug-12 00:00N 01°15' E 103°58'3 5.7
2017-Aug-11 23:30N 01°17' E 103°60'0 0.6
2017-Aug-11 22:52N 01°17' E 104°00'0 0.0
2017-Aug-11 22:28N 01°17' E 104°00'0 0.0
2017-Aug-11 21:55N 01°17' E 104°00'0 0.1
2017-Aug-11 21:28N 01°17' E 104°00'0 0.1
2017-Aug-11 20:46N 01°17' E 104°00'0 0.2
2017-Aug-11 20:22N 01°17' E 104°00'0 0.2
2017-Aug-11 19:55N 01°17' E 104°00'0 0.1
2017-Aug-11 19:22N 01°17' E 104°00'0 0.3
2017-Aug-11 18:25N 01°17' E 103°60'0 0.0
2017-Aug-11 17:55N 01°17' E 103°60'0 0.1
2017-Aug-11 17:25N 01°17' E 103°60'0 0.1
2017-Aug-11 16:55N 01°17' E 103°60'0 0.0
2017-Aug-11 16:28N 01°17' E 103°60'0 0.1
2017-Aug-11 15:58N 01°17' E 103°60'0 0.0
2017-Aug-11 15:25N 01°17' E 103°60'0 0.1
2017-Aug-11 14:43N 01°17' E 103°60'0 0.1
2017-Aug-11 13:58N 01°17' E 103°60'0 0.0
2017-Aug-11 13:25N 01°17' E 103°60'0 0.0
2017-Aug-11 12:58N 01°17' E 103°60'0 0.2
2017-Aug-11 11:43N 01°17' E 104°00'0 0.1
2017-Aug-11 11:25N 01°17' E 104°00'0 0.1
2017-Aug-11 10:55N 01°17' E 104°00'0 0.1
2017-Aug-11 10:19N 01°17' E 104°00'0 0.1
2017-Aug-11 09:55N 01°17' E 104°00'0 1.0
2017-Aug-11 09:30N 01°17' E 104°01'1 2.1
2017-Aug-11 09:00N 01°16' E 103°60'1 1.4
2017-Aug-11 08:30N 01°16' E 104°00'3 5.8
2017-Aug-11 08:00N 01°16' E 104°03'  

Dump ship's entire track history